Time;durP1;ratioP1;P1;durP2;ratioP2;P2;SDS_P1;SDS_P2;PMS_P1;PMS_P2;Temp;Humidity;BMP_temperature;BMP_pressure;BME280_temperature;BME280_humidity;BME280_pressure;Samples;Min_cycle;Max_cycle;Signal;HPM_P1;HPM_P2
2021/01/28 00:01:14;;;;;;;30.20;4.15;;;18.40;99.90;;;;;;4972631;28;20746;-79
2021/01/28 00:03:42;;;;;;;26.55;4.57;;;18.30;99.90;;;;;;4975967;28;20433;-79
2021/01/28 00:06:09;;;;;;;25.73;4.07;;;18.20;99.90;;;;;;4984475;28;20404;-79
2021/01/28 00:08:38;;;;;;;14.40;3.45;;;18.30;99.90;;;;;;4991110;28;20397;-78
2021/01/28 00:11:05;;;;;;;23.43;4.40;;;18.20;99.90;;;;;;4988420;28;20459;-78
2021/01/28 00:13:32;;;;;;;25.65;4.47;;;18.10;99.90;;;;;;4987182;28;20393;-78
2021/01/28 00:15:59;;;;;;;26.08;4.25;;;18.00;99.90;;;;;;4991537;28;20415;-79
2021/01/28 00:18:26;;;;;;;25.25;4.35;;;18.10;99.90;;;;;;4984150;28;20395;-79
2021/01/28 00:20:53;;;;;;;21.23;4.20;;;18.00;99.90;;;;;;4970806;28;20458;-79
2021/01/28 00:23:20;;;;;;;24.15;3.90;;;18.10;99.90;;;;;;4971835;28;20421;-78
2021/01/28 00:25:48;;;;;;;27.67;4.35;;;18.00;99.90;;;;;;4986644;28;20435;-78
2021/01/28 00:28:19;;;;;;;27.05;4.25;;;17.90;99.90;;;;;;4982140;28;20461;-79
2021/01/28 00:30:50;;;;;;;25.70;4.20;;;17.90;99.90;;;;;;4972159;28;20440;-79
2021/01/28 00:33:21;;;;;;;22.58;4.70;;;18.00;99.90;;;;;;4990387;28;20389;-79
2021/01/28 00:35:51;;;;;;;23.85;3.97;;;17.90;99.90;;;;;;4994788;28;20412;-79
2021/01/28 00:38:28;;;;;;;27.25;4.25;;;17.90;99.90;;;;;;5009037;28;20499;-79
2021/01/28 00:40:55;;;;;;;27.23;5.45;;;17.80;99.90;;;;;;4991182;28;20397;-78
2021/01/28 00:43:23;;;;;;;24.95;4.35;;;17.80;99.90;;;;;;4990662;28;20413;-80
2021/01/28 00:45:50;;;;;;;29.80;4.60;;;17.70;99.90;;;;;;4990791;28;20877;-78
2021/01/28 00:48:19;;;;;;;27.27;4.83;;;17.70;99.90;;;;;;4981257;28;20419;-79
2021/01/28 00:50:47;;;;;;;28.10;4.78;;;17.70;99.90;;;;;;4986951;28;20501;-79
2021/01/28 00:53:16;;;;;;;28.70;4.90;;;17.80;99.90;;;;;;4990795;28;20389;-78
2021/01/28 00:55:43;;;;;;;27.98;4.10;;;17.80;99.90;;;;;;4990961;28;20393;-78
2021/01/28 00:58:11;;;;;;;29.67;4.22;;;17.80;99.90;;;;;;4984196;28;20403;-77
2021/01/28 01:00:41;;;;;;;28.23;4.55;;;17.90;99.90;;;;;;4978830;28;20416;-78
2021/01/28 01:03:10;;;;;;;30.63;4.27;;;17.90;99.90;;;;;;4968803;28;20945;-77
2021/01/28 01:05:40;;;;;;;28.53;4.23;;;17.90;99.90;;;;;;4988567;28;20447;-76
2021/01/28 01:08:11;;;;;;;27.80;4.63;;;17.90;99.90;;;;;;4985982;28;20393;-75
2021/01/28 01:10:40;;;;;;;31.95;4.90;;;18.00;99.90;;;;;;4990608;28;21311;-78
2021/01/28 01:13:09;;;;;;;27.23;4.18;;;18.00;99.90;;;;;;4982292;28;21079;-78
2021/01/28 01:15:37;;;;;;;26.73;4.43;;;17.90;99.90;;;;;;4981639;28;20395;-77
2021/01/28 01:18:08;;;;;;;29.08;4.75;;;17.90;99.90;;;;;;4969806;28;20404;-78
2021/01/28 01:20:35;;;;;;;28.58;4.63;;;17.90;99.90;;;;;;4990530;28;20389;-79
2021/01/28 01:23:03;;;;;;;26.37;4.40;;;18.10;99.90;;;;;;4990275;28;20945;-78
2021/01/28 01:25:30;;;;;;;27.75;4.80;;;18.20;99.90;;;;;;4990405;28;20412;-79
2021/01/28 01:27:57;;;;;;;29.50;3.80;;;18.10;99.90;;;;;;4991905;28;20408;-79
2021/01/28 01:30:25;;;;;;;27.13;4.35;;;18.00;99.90;;;;;;5009841;28;20407;-79
2021/01/28 01:32:53;;;;;;;21.67;4.28;;;18.10;99.90;;;;;;5009828;28;20371;-79
2021/01/28 01:35:22;;;;;;;28.10;4.00;;;18.10;99.90;;;;;;5010476;28;20433;-79
2021/01/28 01:37:51;;;;;;;26.85;4.38;;;18.30;99.90;;;;;;5009848;28;20407;-79
2021/01/28 01:40:40;;;;;;;19.88;4.10;;;18.30;99.90;;;;;;5009943;28;20383;-78
2021/01/28 01:43:10;;;;;;;27.00;4.03;;;18.30;99.90;;;;;;5009282;28;20905;-78
2021/01/28 01:45:46;;;;;;;21.20;3.83;;;18.40;99.90;;;;;;5005286;28;20443;-79
2021/01/28 01:48:30;;;;;;;23.83;3.85;;;18.30;99.90;;;;;;4993356;28;20375;-79
2021/01/28 01:51:18;;;;;;;29.20;4.27;;;18.30;99.90;;;;;;4990226;28;20478;-79
2021/01/28 01:53:53;;;;;;;28.58;4.38;;;18.10;99.90;;;;;;4987915;28;20391;-79
2021/01/28 01:56:38;;;;;;;22.97;4.30;;;18.20;99.90;;;;;;5001043;28;20401;-80
2021/01/28 01:59:21;;;;;;;23.80;4.20;;;18.50;99.90;;;;;;4990475;28;20480;-79
2021/01/28 02:02:03;;;;;;;23.65;3.80;;;18.40;99.90;;;;;;4988293;28;20761;-79
2021/01/28 02:04:31;;;;;;;22.83;4.10;;;18.50;99.90;;;;;;4989317;28;20389;-79
2021/01/28 02:07:16;;;;;;;24.38;3.72;;;18.50;99.90;;;;;;4990036;28;20385;-78
2021/01/28 02:09:50;;;;;;;22.80;3.53;;;18.60;99.90;;;;;;4983604;28;20421;-78
2021/01/28 02:12:18;;;;;;;23.10;3.45;;;18.60;99.90;;;;;;4989452;28;20385;-79
2021/01/28 02:14:50;;;;;;;17.23;3.45;;;18.70;99.90;;;;;;4989401;28;20396;-79
2021/01/28 02:17:21;;;;;;;19.05;3.72;;;18.70;99.90;;;;;;4989315;28;20427;-79
2021/01/28 02:19:51;;;;;;;20.83;3.80;;;18.80;99.90;;;;;;4994205;28;20463;-79
2021/01/28 02:22:44;;;;;;;21.85;3.70;;;19.10;99.90;;;;;;5009129;28;20486;-79
2021/01/28 02:25:13;;;;;;;16.30;3.60;;;19.30;99.90;;;;;;5001952;28;20409;-79
2021/01/28 02:27:44;;;;;;;20.20;3.90;;;19.40;99.90;;;;;;5009209;28;20882;-79
2021/01/28 02:30:14;;;;;;;21.25;3.53;;;19.60;99.90;;;;;;5009191;28;20929;-79
2021/01/28 02:32:40;;;;;;;20.13;3.63;;;19.70;99.90;;;;;;5008828;28;20380;-79
2021/01/28 02:35:10;;;;;;;18.42;3.20;;;19.90;99.90;;;;;;5009392;28;20407;-78
2021/01/28 02:37:37;;;;;;;19.05;3.55;;;19.90;99.90;;;;;;4988653;28;20381;-79
2021/01/28 02:40:05;;;;;;;21.33;3.40;;;19.90;99.90;;;;;;4988934;28;20771;-79
2021/01/28 02:42:33;;;;;;;17.50;2.88;;;19.90;99.90;;;;;;4989486;28;20381;-79
2021/01/28 02:45:00;;;;;;;17.38;3.17;;;19.90;99.90;;;;;;4988254;28;20461;-80
2021/01/28 02:47:28;;;;;;;15.40;3.20;;;20.00;99.90;;;;;;4989350;28;20381;-80
2021/01/28 02:49:55;;;;;;;19.10;3.37;;;20.10;99.90;;;;;;4987849;28;20471;-80
2021/01/28 02:52:22;;;;;;;19.23;3.93;;;20.10;99.90;;;;;;4989213;28;20376;-81
2021/01/28 02:54:51;;;;;;;17.83;3.20;;;20.00;99.90;;;;;;4988883;28;20793;-81
2021/01/28 02:57:18;;;;;;;22.38;3.75;;;20.00;99.90;;;;;;4973974;28;20390;-80
2021/01/28 02:59:47;;;;;;;23.00;4.13;;;20.00;99.90;;;;;;4973803;28;20484;-80
2021/01/28 03:02:17;;;;;;;21.08;3.20;;;20.00;99.90;;;;;;4987672;28;20689;-80
2021/01/28 03:04:45;;;;;;;17.20;3.38;;;20.00;99.90;;;;;;4989065;28;20392;-81
2021/01/28 03:07:15;;;;;;;14.95;3.15;;;20.10;99.90;;;;;;4972187;28;20896;-81
2021/01/28 03:09:42;;;;;;;19.20;3.80;;;20.20;99.90;;;;;;4987582;28;20405;-80
2021/01/28 03:12:10;;;;;;;22.13;3.33;;;20.40;99.90;;;;;;4986673;28;20902;-81
2021/01/28 03:14:37;;;;;;;15.98;3.08;;;20.30;99.90;;;;;;4987111;28;20710;-80
2021/01/28 03:17:07;;;;;;;16.38;3.03;;;20.40;99.90;;;;;;4979946;28;20453;-80
2021/01/28 03:19:34;;;;;;;18.83;3.80;;;20.30;99.90;;;;;;4987566;28;20880;-81
2021/01/28 03:22:01;;;;;;;17.05;3.00;;;20.30;99.90;;;;;;4983662;28;20965;-81
2021/01/28 03:24:30;;;;;;;13.18;2.78;;;20.30;99.90;;;;;;4988863;28;20397;-81
2021/01/28 03:26:57;;;;;;;18.00;2.83;;;20.30;99.90;;;;;;4989093;28;20412;-81
2021/01/28 03:29:24;;;;;;;20.15;3.70;;;20.30;99.90;;;;;;4985271;28;20415;-81
2021/01/28 03:31:51;;;;;;;19.10;3.43;;;20.30;99.90;;;;;;4987467;28;20487;-82
2021/01/28 03:34:19;;;;;;;20.10;3.00;;;20.30;99.90;;;;;;4989054;28;20385;-81
2021/01/28 03:36:46;;;;;;;18.73;3.00;;;20.20;99.90;;;;;;4982462;28;20381;-81
2021/01/28 03:39:14;;;;;;;19.92;3.55;;;20.30;99.90;;;;;;4986297;28;20393;-80
2021/01/28 03:41:41;;;;;;;20.70;3.42;;;20.30;99.90;;;;;;4983253;28;20422;-80
2021/01/28 03:44:08;;;;;;;20.83;3.75;;;20.20;99.90;;;;;;4983645;28;20440;-80
2021/01/28 03:46:35;;;;;;;18.58;3.35;;;20.00;99.90;;;;;;4986518;28;20811;-81
2021/01/28 03:49:02;;;;;;;17.40;2.97;;;19.90;99.90;;;;;;4988697;28;20416;-81
2021/01/28 03:51:29;;;;;;;14.03;2.97;;;19.80;99.90;;;;;;4989179;28;20852;-80
2021/01/28 03:53:56;;;;;;;15.45;2.97;;;19.80;99.90;;;;;;4988316;28;20385;-81
2021/01/28 03:56:23;;;;;;;22.70;3.25;;;19.80;99.90;;;;;;4990016;28;20411;-81
2021/01/28 03:58:50;;;;;;;16.08;3.08;;;19.90;99.90;;;;;;4990598;28;20911;-81
2021/01/28 04:01:17;;;;;;;18.70;3.25;;;19.90;99.90;;;;;;4988298;28;20491;-81
2021/01/28 04:03:44;;;;;;;27.13;4.35;;;19.90;99.90;;;;;;4991575;28;20393;-81
2021/01/28 04:06:11;;;;;;;21.50;3.85;;;19.90;99.90;;;;;;4988598;28;20515;-81
2021/01/28 04:08:38;;;;;;;17.33;3.13;;;19.90;99.90;;;;;;4973927;28;20391;-80
2021/01/28 04:11:06;;;;;;;18.23;3.20;;;19.90;99.90;;;;;;4974931;28;20421;-80
2021/01/28 04:13:33;;;;;;;20.15;3.75;;;20.00;99.90;;;;;;4986673;28;20453;-80
2021/01/28 04:16:01;;;;;;;21.20;3.50;;;19.90;99.90;;;;;;4979607;28;20402;-80
2021/01/28 04:18:28;;;;;;;23.70;3.60;;;19.90;99.90;;;;;;4988310;28;20389;-80
2021/01/28 04:20:55;;;;;;;21.05;3.30;;;19.80;99.90;;;;;;4991851;28;21013;-81
2021/01/28 04:23:21;;;;;;;22.63;3.45;;;19.70;99.90;;;;;;4977989;28;20437;-80
2021/01/28 04:25:49;;;;;;;20.73;3.92;;;19.60;99.90;;;;;;4972229;28;20449;-81
2021/01/28 04:28:16;;;;;;;19.55;2.95;;;19.50;99.90;;;;;;4979324;28;20385;-80
2021/01/28 04:30:44;;;;;;;21.30;3.65;;;19.40;99.90;;;;;;4991528;28;20415;-79
2021/01/28 04:33:11;;;;;;;21.90;3.97;;;19.10;99.90;;;;;;4990323;28;20512;-79
2021/01/28 04:35:38;;;;;;;26.83;3.78;;;19.00;99.90;;;;;;4972347;28;20422;-79
2021/01/28 04:38:06;;;;;;;18.50;3.70;;;19.00;99.90;;;;;;4977541;28;20509;-79
2021/01/28 04:40:53;;;;;;;18.75;3.28;;;18.90;99.90;;;;;;4986254;28;20396;-81
2021/01/28 04:43:27;;;;;;;18.23;3.10;;;18.90;99.90;;;;;;4982933;28;20412;-80
2021/01/28 04:46:03;;;;;;;22.73;3.20;;;18.90;99.90;;;;;;4977943;28;20474;-80
2021/01/28 04:48:32;;;;;;;19.98;3.33;;;18.90;99.90;;;;;;4989097;28;20442;-81
2021/01/28 04:51:01;;;;;;;22.50;3.35;;;18.90;99.90;;;;;;4991354;28;20508;-80
2021/01/28 04:53:31;;;;;;;16.58;2.95;;;18.90;99.90;;;;;;4990932;28;20887;-81
2021/01/28 04:56:04;;;;;;;18.02;3.22;;;18.90;99.90;;;;;;4975749;28;20397;-80
2021/01/28 04:58:31;;;;;;;19.07;3.07;;;19.00;99.90;;;;;;4983716;28;20480;-80
2021/01/28 05:00:58;;;;;;;19.45;3.33;;;19.10;99.90;;;;;;4989717;28;20404;-81
2021/01/28 05:03:32;;;;;;;16.77;2.42;;;19.00;99.90;;;;;;4988639;28;20480;-81
2021/01/28 05:06:01;;;;;;;19.15;2.95;;;19.00;99.90;;;;;;4988747;28;20426;-81
2021/01/28 05:08:28;;;;;;;14.68;2.85;;;18.90;99.90;;;;;;4968488;28;20725;-80
2021/01/28 05:10:57;;;;;;;14.68;2.22;;;18.80;99.90;;;;;;4987440;28;20464;-81
2021/01/28 05:13:31;;;;;;;15.90;2.80;;;18.80;99.90;;;;;;4988785;28;20404;-80
2021/01/28 05:16:17;;;;;;;16.98;3.38;;;18.90;99.90;;;;;;4987012;28;20392;-79
2021/01/28 05:18:55;;;;;;;13.55;2.55;;;19.00;99.90;;;;;;4988346;28;20404;-80
2021/01/28 05:21:24;;;;;;;16.13;3.00;;;19.10;99.90;;;;;;4985864;28;20411;-80
2021/01/28 05:24:09;;;;;;;14.75;2.58;;;19.10;99.90;;;;;;4987621;28;21200;-80
2021/01/28 05:26:42;;;;;;;18.58;3.30;;;19.20;99.90;;;;;;4980198;28;20804;-80
2021/01/28 05:29:18;;;;;;;19.88;3.05;;;19.30;99.90;;;;;;4988714;28;20440;-80
2021/01/28 05:31:46;;;;;;;18.67;2.92;;;19.30;99.90;;;;;;4981732;28;20413;-81
2021/01/28 05:34:18;;;;;;;16.50;3.35;;;19.30;99.90;;;;;;4990376;28;20416;-82
2021/01/28 05:36:56;;;;;;;21.40;3.63;;;19.30;99.90;;;;;;4985344;28;20401;-81
2021/01/28 05:39:32;;;;;;;17.58;3.72;;;19.40;99.90;;;;;;4988445;28;20463;-81
2021/01/28 05:42:21;;;;;;;22.35;4.03;;;19.40;99.90;;;;;;4985512;28;20393;-82
2021/01/28 05:44:48;;;;;;;29.30;4.18;;;19.20;99.90;;;;;;4988536;28;20429;-80
2021/01/28 05:47:29;;;;;;;23.58;3.75;;;19.00;99.90;;;;;;4990218;28;20942;-81
2021/01/28 05:50:13;;;;;;;17.90;3.58;;;18.90;99.90;;;;;;4990335;28;20412;-81
2021/01/28 05:52:40;;;;;;;21.02;3.38;;;18.80;99.90;;;;;;4989503;28;20467;-80
2021/01/28 05:55:15;;;;;;;17.60;3.30;;;18.70;99.90;;;;;;4987566;28;20472;-82
2021/01/28 05:57:42;;;;;;;16.63;2.70;;;18.80;99.90;;;;;;4988781;28;20392;-80
2021/01/28 06:00:38;;;;;;;18.33;3.38;;;18.80;99.90;;;;;;5006734;28;20392;-80
2021/01/28 06:03:23;;;;;;;18.83;3.40;;;18.90;99.90;;;;;;4970599;28;20400;-80
2021/01/28 06:06:20;;;;;;;23.25;4.30;;;18.90;99.90;;;;;;4990021;28;20714;-81
2021/01/28 06:09:08;;;;;;;23.77;3.60;;;18.80;99.90;;;;;;4988778;28;20525;-80
2021/01/28 06:11:41;;;;;;;20.97;4.00;;;18.70;99.90;;;;;;4989953;28;20866;-80
2021/01/28 06:14:32;;;;;;;19.42;3.70;;;18.80;99.90;;;;;;4985351;28;20496;-79
2021/01/28 06:17:41;;;;;;;19.67;3.00;;;18.80;99.90;;;;;;4989270;28;20495;-79
2021/01/28 06:20:26;;;;;;;22.67;3.42;;;18.80;99.90;;;;;;4987070;28;20765;-79
2021/01/28 06:23:17;;;;;;;21.58;4.15;;;18.60;99.90;;;;;;4986413;28;20895;-79
2021/01/28 06:26:15;;;;;;;21.02;3.67;;;18.50;99.90;;;;;;4966165;28;20418;-78
2021/01/28 06:28:53;;;;;;;21.70;3.65;;;18.40;99.90;;;;;;4969240;28;20478;-78
2021/01/28 06:31:46;;;;;;;12.15;2.63;;;18.30;99.90;;;;;;4960405;28;20413;-77
2021/01/28 06:34:41;;;;;;;16.40;3.13;;;18.30;99.90;;;;;;4970022;28;20387;-78
2021/01/28 06:37:30;;;;;;;16.42;2.70;;;18.20;99.90;;;;;;4963950;28;20394;-78
2021/01/28 06:39:58;;;;;;;16.08;2.92;;;18.10;99.90;;;;;;4969748;28;20389;-78
2021/01/28 06:42:58;;;;;;;16.63;2.92;;;18.10;99.90;;;;;;4964130;28;20824;-78
2021/01/28 06:45:34;;;;;;;20.63;3.17;;;18.00;99.90;;;;;;4967350;28;20394;-78
2021/01/28 06:48:19;;;;;;;22.38;4.57;;;18.10;99.90;;;;;;4966713;28;20403;-77
2021/01/28 06:50:51;;;;;;;23.13;4.05;;;18.10;99.90;;;;;;4967820;28;20448;-77
2021/01/28 06:53:27;;;;;;;20.65;3.42;;;18.10;99.90;;;;;;4969877;28;20398;-77
2021/01/28 06:56:32;;;;;;;23.00;3.75;;;18.10;99.90;;;;;;4969827;28;20429;-78
2021/01/28 06:59:36;;;;;;;22.63;3.75;;;18.10;99.90;;;;;;4963127;28;20394;-77
2021/01/28 07:02:16;;;;;;;26.20;3.70;;;18.10;99.90;;;;;;4967293;28;20390;-78
2021/01/28 07:05:00;;;;;;;21.02;3.78;;;18.00;99.90;;;;;;4969217;28;20422;-78
2021/01/28 07:07:30;;;;;;;17.92;3.03;;;18.00;99.90;;;;;;4970056;28;20884;-78
2021/01/28 07:10:33;;;;;;;15.88;2.90;;;17.90;99.90;;;;;;4961814;28;20905;-79
2021/01/28 07:13:02;;;;;;;17.10;3.03;;;17.90;99.90;;;;;;4957895;28;20403;-77
2021/01/28 07:15:32;;;;;;;14.45;2.78;;;17.80;99.90;;;;;;4975617;28;20394;-78
2021/01/28 07:18:31;;;;;;;17.63;3.25;;;17.70;99.90;;;;;;4949506;28;20398;-79
2021/01/28 07:21:05;;;;;;;14.57;2.92;;;17.60;99.90;;;;;;4946155;28;20429;-78
2021/01/28 07:23:44;;;;;;;22.30;3.63;;;17.70;99.90;;;;;;4974209;28;20730;-77
2021/01/28 07:26:17;;;;;;;20.85;3.17;;;17.70;99.90;;;;;;4987551;28;20796;-78
2021/01/28 07:28:47;;;;;;;21.10;2.92;;;17.80;99.90;;;;;;4997215;28;20731;-78
2021/01/28 07:31:41;;;;;;;20.70;3.13;;;17.80;99.90;;;;;;4995279;28;20424;-78
2021/01/28 07:34:17;;;;;;;27.58;3.75;;;17.80;99.90;;;;;;4992533;28;20475;-78
2021/01/28 07:36:50;;;;;;;30.35;4.00;;;17.80;99.90;;;;;;4992617;28;20896;-80
2021/01/28 07:39:33;;;;;;;20.20;3.42;;;17.80;99.90;;;;;;4988426;28;20879;-80
2021/01/28 07:42:03;;;;;;;30.23;3.72;;;17.80;99.90;;;;;;4985245;28;20404;-81
2021/01/28 07:44:41;;;;;;;19.83;3.35;;;17.90;99.90;;;;;;4984262;28;20389;-80
2021/01/28 07:47:31;;;;;;;18.95;2.75;;;17.90;99.90;;;;;;4991519;28;20405;-81
2021/01/28 07:50:28;;;;;;;19.13;2.92;;;17.80;99.90;;;;;;4990243;28;20417;-78
2021/01/28 07:52:55;;;;;;;17.50;2.97;;;17.80;99.90;;;;;;4990427;28;21850;-78
2021/01/28 07:55:54;;;;;;;14.73;2.38;;;17.80;99.90;;;;;;4991614;28;20381;-80
2021/01/28 07:58:29;;;;;;;18.77;3.25;;;17.80;99.90;;;;;;4943784;28;20492;-80
2021/01/28 08:01:00;;;;;;;17.38;2.67;;;17.70;99.90;;;;;;4987495;28;20405;-79
2021/01/28 08:03:33;;;;;;;13.90;2.20;;;17.70;99.90;;;;;;4988857;28;20393;-80
2021/01/28 08:06:06;;;;;;;16.48;3.17;;;17.70;99.90;;;;;;4990629;28;20836;-79
2021/01/28 08:08:33;;;;;;;14.93;2.85;;;17.80;99.90;;;;;;4991433;28;20432;-80
2021/01/28 08:11:20;;;;;;;17.13;2.78;;;17.80;99.90;;;;;;4989942;28;20511;-79
2021/01/28 08:13:55;;;;;;;18.42;2.55;;;17.80;99.90;;;;;;4991205;28;20432;-79
2021/01/28 08:16:23;;;;;;;15.23;2.30;;;17.80;99.90;;;;;;4990417;28;20519;-79
2021/01/28 08:19:07;;;;;;;13.93;2.45;;;17.80;99.90;;;;;;4988185;28;20398;-79
2021/01/28 08:21:34;;;;;;;15.45;2.50;;;17.80;99.90;;;;;;4990971;28;20753;-79
2021/01/28 08:24:34;;;;;;;12.48;2.20;;;17.70;99.90;;;;;;4991709;28;20836;-80
2021/01/28 08:27:20;;;;;;;14.57;2.20;;;17.70;99.90;;;;;;4989393;28;20499;-80
2021/01/28 08:30:15;;;;;;;19.88;2.90;;;17.70;99.90;;;;;;4989955;28;20851;-79
2021/01/28 08:32:45;;;;;;;21.42;3.35;;;17.60;99.90;;;;;;4989867;28;20440;-80
2021/01/28 08:35:22;;;;;;;20.45;2.55;;;17.60;99.90;;;;;;4990894;28;20424;-78
2021/01/28 08:37:49;;;;;;;23.08;3.75;;;17.60;99.90;;;;;;4990783;28;20749;-78
2021/01/28 08:40:23;;;;;;;22.33;3.30;;;17.60;99.90;;;;;;4989801;28;20471;-79
2021/01/28 08:42:50;;;;;;;26.20;3.70;;;17.60;99.90;;;;;;4989514;28;20384;-79
2021/01/28 08:45:29;;;;;;;21.48;3.60;;;17.50;99.90;;;;;;4989933;28;20420;-80
2021/01/28 08:48:06;;;;;;;20.10;3.40;;;17.60;99.90;;;;;;4990168;28;20404;-80
2021/01/28 08:50:33;;;;;;;23.83;3.70;;;17.60;99.90;;;;;;4990747;28;20416;-79
2021/01/28 08:53:03;;;;;;;28.87;4.20;;;17.60;99.90;;;;;;4990765;28;20393;-80
2021/01/28 08:55:35;;;;;;;29.08;3.63;;;17.60;99.90;;;;;;4990548;28;20426;-79
2021/01/28 08:58:05;;;;;;;24.50;3.70;;;17.60;99.90;;;;;;4990788;28;20962;-79
2021/01/28 09:00:33;;;;;;;29.50;4.30;;;17.60;99.90;;;;;;4989145;28;20415;-79
2021/01/28 09:03:03;;;;;;;22.60;3.70;;;17.60;99.90;;;;;;4987515;28;20802;-80
2021/01/28 09:05:33;;;;;;;19.48;3.20;;;17.70;99.90;;;;;;4990579;28;20441;-79
2021/01/28 09:08:26;;;;;;;19.65;3.78;;;17.70;99.90;;;;;;4990620;28;20409;-79
2021/01/28 09:11:05;;;;;;;23.42;3.65;;;17.60;99.90;;;;;;4987733;28;20428;-80
2021/01/28 09:13:32;;;;;;;27.33;4.13;;;17.60;99.90;;;;;;4979876;28;20402;-81
2021/01/28 09:16:18;;;;;;;26.05;3.95;;;17.70;99.90;;;;;;4968114;28;20453;-80
2021/01/28 09:18:50;;;;;;;22.20;3.67;;;17.70;99.90;;;;;;4983695;28;20892;-80
2021/01/28 09:21:22;;;;;;;23.70;3.63;;;17.70;99.90;;;;;;4983903;28;20405;-78
2021/01/28 09:24:27;;;;;;;22.38;3.42;;;17.80;99.90;;;;;;4984674;28;20402;-79
2021/01/28 09:27:15;;;;;;;28.52;3.83;;;17.70;99.90;;;;;;4968366;28;20929;-80
2021/01/28 09:29:43;;;;;;;23.87;3.20;;;17.70;99.90;;;;;;4976218;28;20424;-80
2021/01/28 09:32:15;;;;;;;23.77;3.80;;;17.70;99.90;;;;;;4965409;28;20441;-81
2021/01/28 09:34:42;;;;;;;22.37;3.90;;;17.70;99.90;;;;;;4987468;28;20983;-79
2021/01/28 09:37:17;;;;;;;22.83;3.28;;;17.60;99.90;;;;;;4988035;28;20412;-79
2021/01/28 09:39:47;;;;;;;21.70;3.30;;;17.60;99.90;;;;;;4987188;28;20427;-79
2021/01/28 09:42:30;;;;;;;27.30;3.60;;;17.60;99.90;;;;;;4987028;28;20431;-79
2021/01/28 09:45:09;;;;;;;20.60;3.70;;;17.60;99.90;;;;;;4985952;28;20396;-80
2021/01/28 09:47:37;;;;;;;27.70;3.53;;;17.70;99.90;;;;;;4986364;28;20404;-79
2021/01/28 09:50:10;;;;;;;26.60;3.57;;;17.70;99.90;;;;;;4967768;28;20820;-80
2021/01/28 09:52:41;;;;;;;23.85;4.03;;;17.70;99.90;;;;;;4986027;28;20405;-79
2021/01/28 09:55:12;;;;;;;21.10;3.60;;;17.60;99.90;;;;;;4982386;28;20874;-79
2021/01/28 09:57:39;;;;;;;21.60;3.30;;;17.70;99.90;;;;;;4984505;28;20397;-79
2021/01/28 10:00:09;;;;;;;16.65;3.10;;;17.60;99.90;;;;;;4985914;28;20472;-78
2021/01/28 10:02:45;;;;;;;18.85;2.90;;;17.50;99.90;;;;;;4987088;28;20396;-78
2021/01/28 10:05:16;;;;;;;18.00;3.33;;;17.50;99.90;;;;;;4986191;28;20401;-77
2021/01/28 10:07:43;;;;;;;23.27;3.47;;;17.50;99.90;;;;;;4985891;28;20491;-79
2021/01/28 10:10:11;;;;;;;11.52;2.17;;;17.50;99.90;;;;;;4986131;28;20416;-78
2021/01/28 10:12:39;;;;;;;13.98;2.40;;;17.50;99.90;;;;;;4968582;28;20436;-80
2021/01/28 10:15:07;;;;;;;11.60;2.22;;;17.50;99.90;;;;;;4985600;28;20810;-78
2021/01/28 10:17:34;;;;;;;13.25;2.42;;;17.50;99.90;;;;;;4986488;28;20393;-78
2021/01/28 10:20:01;;;;;;;12.60;2.40;;;17.50;99.90;;;;;;4981605;28;20397;-79
2021/01/28 10:22:30;;;;;;;13.27;2.20;;;17.50;99.90;;;;;;4983813;28;20900;-79
2021/01/28 10:24:57;;;;;;;13.82;2.25;;;17.50;99.90;;;;;;4985055;28;20483;-79
2021/01/28 10:27:24;;;;;;;19.35;3.33;;;17.50;99.90;;;;;;4986675;28;20373;-79
2021/01/28 10:29:51;;;;;;;17.58;2.83;;;17.50;99.90;;;;;;4978266;28;20422;-78
2021/01/28 10:32:18;;;;;;;19.73;3.60;;;17.50;99.90;;;;;;4982287;28;20532;-79
2021/01/28 10:34:45;;;;;;;18.10;3.42;;;17.50;99.90;;;;;;4985452;28;20884;-79
2021/01/28 10:37:12;;;;;;;26.40;3.67;;;17.50;99.90;;;;;;4984542;28;20409;-79
2021/01/28 10:39:39;;;;;;;26.20;3.22;;;17.50;99.90;;;;;;4985289;28;20995;-79
2021/01/28 10:42:07;;;;;;;24.42;3.80;;;17.60;99.90;;;;;;4986597;28;20387;-79
2021/01/28 10:44:34;;;;;;;21.73;3.83;;;17.50;99.90;;;;;;4985817;28;20847;-79
2021/01/28 10:47:01;;;;;;;21.60;3.70;;;17.50;99.90;;;;;;4983207;28;20403;-79
2021/01/28 10:49:28;;;;;;;20.13;3.77;;;17.60;99.90;;;;;;4986648;28;20490;-80
2021/01/28 10:51:55;;;;;;;23.60;3.90;;;17.60;99.90;;;;;;4986110;28;20911;-80
2021/01/28 10:54:22;;;;;;;22.02;4.18;;;17.60;99.90;;;;;;4983888;28;20823;-80
2021/01/28 10:56:49;;;;;;;23.02;3.88;;;17.60;99.90;;;;;;4982134;28;20398;-79
2021/01/28 10:59:16;;;;;;;22.20;4.32;;;17.70;99.90;;;;;;4967353;28;20403;-80
2021/01/28 11:01:43;;;;;;;23.85;4.15;;;17.60;99.90;;;;;;4967461;28;20416;-80
2021/01/28 11:04:10;;;;;;;24.50;4.00;;;17.60;99.90;;;;;;4985636;28;20423;-80
2021/01/28 11:06:38;;;;;;;28.77;4.05;;;17.60;99.90;;;;;;4988617;28;20426;-80
2021/01/28 11:09:05;;;;;;;23.35;4.22;;;17.60;99.90;;;;;;4991581;28;20499;-81
2021/01/28 11:11:32;;;;;;;27.73;3.97;;;17.60;99.90;;;;;;4987640;28;20431;-80
2021/01/28 11:13:59;;;;;;;25.23;4.00;;;17.60;99.90;;;;;;4993189;28;20836;-81
2021/01/28 11:16:28;;;;;;;28.48;4.10;;;17.60;99.90;;;;;;4993189;28;20396;-80
2021/01/28 11:18:57;;;;;;;24.27;4.05;;;17.60;99.90;;;;;;4990788;28;20392;-80
2021/01/28 11:21:24;;;;;;;27.77;4.22;;;17.70;99.90;;;;;;4992356;28;20498;-79
2021/01/28 11:23:51;;;;;;;28.65;4.35;;;17.60;99.90;;;;;;4987600;28;20404;-79
2021/01/28 11:26:18;;;;;;;22.77;4.00;;;17.60;99.90;;;;;;4989273;28;20401;-79
2021/01/28 11:28:45;;;;;;;28.65;3.83;;;17.60;99.90;;;;;;4989590;28;20389;-79
2021/01/28 11:31:13;;;;;;;22.83;3.58;;;17.60;99.90;;;;;;4987921;28;20411;-79
2021/01/28 11:33:40;;;;;;;24.95;2.85;;;17.70;99.90;;;;;;4992859;28;20475;-79
2021/01/28 11:36:07;;;;;;;24.77;3.55;;;17.70;99.90;;;;;;4990997;28;20406;-79
2021/01/28 11:38:34;;;;;;;23.90;3.50;;;17.80;99.90;;;;;;4987311;28;20396;-80
2021/01/28 11:41:03;;;;;;;22.02;3.53;;;17.80;99.90;;;;;;4988092;28;20400;-80
2021/01/28 11:43:30;;;;;;;23.60;3.65;;;17.90;99.90;;;;;;4988101;28;20385;-81
2021/01/28 11:45:58;;;;;;;22.20;3.60;;;17.90;99.90;;;;;;4988808;28;20405;-80
2021/01/28 11:48:25;;;;;;;18.63;3.35;;;17.90;99.90;;;;;;4992872;28;20432;-80
2021/01/28 11:50:52;;;;;;;24.25;3.35;;;17.90;99.90;;;;;;4992764;28;20512;-81
2021/01/28 11:53:19;;;;;;;21.35;3.63;;;17.90;99.90;;;;;;4992294;28;20472;-81
2021/01/28 11:55:46;;;;;;;19.05;3.30;;;18.00;99.90;;;;;;4988162;28;20425;-79
2021/01/28 11:58:14;;;;;;;24.07;3.17;;;18.00;99.90;;;;;;4989545;28;20400;-81
2021/01/28 12:00:41;;;;;;;20.60;3.60;;;18.00;99.90;;;;;;4989213;28;20409;-80
2021/01/28 12:03:08;;;;;;;25.98;3.75;;;17.90;99.90;;;;;;4988627;28;20476;-81
2021/01/28 12:05:35;;;;;;;30.47;3.87;;;17.90;99.90;;;;;;4988352;28;20392;-80
2021/01/28 12:08:03;;;;;;;21.27;4.07;;;17.90;99.90;;;;;;4986607;28;20427;-81
2021/01/28 12:10:32;;;;;;;28.40;3.97;;;17.90;99.90;;;;;;4986593;28;20412;-80
2021/01/28 12:12:59;;;;;;;30.75;3.60;;;18.00;99.90;;;;;;4988419;28;20903;-80
2021/01/28 12:15:27;;;;;;;29.58;3.83;;;18.00;99.90;;;;;;4986057;28;20876;-82
2021/01/28 12:17:55;;;;;;;23.00;3.80;;;18.00;99.90;;;;;;4984727;28;20403;-82
2021/01/28 12:20:26;;;;;;;36.58;4.05;;;17.90;99.90;;;;;;4981594;28;20396;-80
2021/01/28 12:22:53;;;;;;;23.05;3.90;;;17.90;99.90;;;;;;4983932;28;20401;-79
2021/01/28 12:25:20;;;;;;;21.77;3.55;;;17.90;99.90;;;;;;4983159;28;20444;-78
2021/01/28 12:27:47;;;;;;;17.10;3.30;;;17.90;99.90;;;;;;4986170;28;20923;-78
2021/01/28 12:30:19;;;;;;;22.02;3.70;;;18.00;99.90;;;;;;4984044;28;20421;-79
2021/01/28 12:32:46;;;;;;;22.40;3.70;;;18.00;99.90;;;;;;4983878;28;20440;-79
2021/01/28 12:35:13;;;;;;;23.55;3.30;;;18.00;99.90;;;;;;4988241;28;20413;-80
2021/01/28 12:37:40;;;;;;;27.05;3.92;;;18.00;99.90;;;;;;4981756;28;20424;-80
2021/01/28 12:40:09;;;;;;;27.90;4.10;;;18.00;99.90;;;;;;4980490;28;20405;-81
2021/01/28 12:42:36;;;;;;;27.40;3.67;;;18.00;99.90;;;;;;4965426;28;20434;-80
2021/01/28 12:45:05;;;;;;;30.60;3.95;;;18.00;99.90;;;;;;4964665;28;20730;-80
2021/01/28 12:47:32;;;;;;;28.33;4.38;;;17.90;99.90;;;;;;4985632;28;21331;-80
2021/01/28 12:49:59;;;;;;;24.67;3.47;;;17.90;99.90;;;;;;4985048;28;20954;-80
2021/01/28 12:52:26;;;;;;;28.45;4.35;;;17.90;99.90;;;;;;4988635;28;20401;-80
2021/01/28 12:54:53;;;;;;;25.80;4.63;;;17.90;99.90;;;;;;4986128;28;20404;-80
2021/01/28 12:57:20;;;;;;;29.98;4.72;;;17.90;99.90;;;;;;4984884;28;20891;-79
2021/01/28 12:59:47;;;;;;;32.35;4.80;;;17.90;99.90;;;;;;4986277;28;20401;-80
2021/01/28 13:02:14;;;;;;;27.38;4.30;;;17.90;99.90;;;;;;4981903;28;20397;-80